sensor_id;sensor_type;location;lat;lon;timestamp;temperature;humidity
26230;DHT22;13960;50.860;4.352;2022-11-20T00:00:05;4.90;99.90
26230;DHT22;13960;50.860;4.352;2022-11-20T00:02:30;5.10;99.90
26230;DHT22;13960;50.860;4.352;2022-11-20T00:04:56;5.30;99.90
26230;DHT22;13960;50.860;4.352;2022-11-20T00:07:21;5.50;99.90
26230;DHT22;13960;50.860;4.352;2022-11-20T00:09:47;5.80;99.90
26230;DHT22;13960;50.860;4.352;2022-11-20T00:12:12;6.00;99.90
26230;DHT22;13960;50.860;4.352;2022-11-20T00:14:40;6.00;99.90
26230;DHT22;13960;50.860;4.352;2022-11-20T00:17:06;5.80;99.90
26230;DHT22;13960;50.860;4.352;2022-11-20T00:19:32;5.80;99.90
26230;DHT22;13960;50.860;4.352;2022-11-20T00:21:57;5.70;99.90
26230;DHT22;13960;50.860;4.352;2022-11-20T00:24:23;6.00;99.90
26230;DHT22;13960;50.860;4.352;2022-11-20T00:26:48;6.30;99.90
26230;DHT22;13960;50.860;4.352;2022-11-20T00:29:14;6.20;99.90
26230;DHT22;13960;50.860;4.352;2022-11-20T00:31:39;5.90;99.90
26230;DHT22;13960;50.860;4.352;2022-11-20T00:34:05;5.90;99.90
26230;DHT22;13960;50.860;4.352;2022-11-20T00:36:32;6.10;99.90
26230;DHT22;13960;50.860;4.352;2022-11-20T00:38:58;6.10;99.90
26230;DHT22;13960;50.860;4.352;2022-11-20T00:41:24;6.10;99.90
26230;DHT22;13960;50.860;4.352;2022-11-20T00:43:51;5.80;99.90
26230;DHT22;13960;50.860;4.352;2022-11-20T00:46:17;5.80;99.90
26230;DHT22;13960;50.860;4.352;2022-11-20T00:48:43;5.90;99.90
26230;DHT22;13960;50.860;4.352;2022-11-20T00:51:09;5.90;99.90
26230;DHT22;13960;50.860;4.352;2022-11-20T00:53:36;6.00;99.90
26230;DHT22;13960;50.860;4.352;2022-11-20T00:56:05;6.00;99.90
26230;DHT22;13960;50.860;4.352;2022-11-20T00:58:35;6.00;99.90
26230;DHT22;13960;50.860;4.352;2022-11-20T01:01:01;6.10;99.90
26230;DHT22;13960;50.860;4.352;2022-11-20T01:03:27;6.20;99.90
26230;DHT22;13960;50.860;4.352;2022-11-20T01:05:53;6.30;99.90
26230;DHT22;13960;50.860;4.352;2022-11-20T01:08:18;6.30;99.90
26230;DHT22;13960;50.860;4.352;2022-11-20T01:10:43;6.40;99.90
26230;DHT22;13960;50.860;4.352;2022-11-20T01:13:09;6.40;99.90
26230;DHT22;13960;50.860;4.352;2022-11-20T01:15:53;6.40;99.90
26230;DHT22;13960;50.860;4.352;2022-11-20T01:18:18;6.30;99.90
26230;DHT22;13960;50.860;4.352;2022-11-20T01:20:44;6.50;99.90
26230;DHT22;13960;50.860;4.352;2022-11-20T01:23:09;6.50;99.90
26230;DHT22;13960;50.860;4.352;2022-11-20T01:25:35;6.60;99.90
26230;DHT22;13960;50.860;4.352;2022-11-20T01:28:00;6.50;99.90
26230;DHT22;13960;50.860;4.352;2022-11-20T01:30:26;6.40;99.90
26230;DHT22;13960;50.860;4.352;2022-11-20T01:32:51;6.50;99.90
26230;DHT22;13960;50.860;4.352;2022-11-20T01:35:17;6.60;99.90
26230;DHT22;13960;50.860;4.352;2022-11-20T01:37:42;6.70;99.90
26230;DHT22;13960;50.860;4.352;2022-11-20T01:40:08;6.80;99.90
26230;DHT22;13960;50.860;4.352;2022-11-20T01:42:33;6.90;99.90
26230;DHT22;13960;50.860;4.352;2022-11-20T01:48:02;6.90;99.90
26230;DHT22;13960;50.860;4.352;2022-11-20T01:50:28;6.90;99.90
26230;DHT22;13960;50.860;4.352;2022-11-20T01:53:04;7.00;99.90
26230;DHT22;13960;50.860;4.352;2022-11-20T01:55:32;6.90;99.90
26230;DHT22;13960;50.860;4.352;2022-11-20T01:57:59;7.00;99.90
26230;DHT22;13960;50.860;4.352;2022-11-20T02:00:26;7.20;99.90
26230;DHT22;13960;50.860;4.352;2022-11-20T02:02:53;7.10;99.90
26230;DHT22;13960;50.860;4.352;2022-11-20T02:05:38;7.20;99.90
26230;DHT22;13960;50.860;4.352;2022-11-20T02:08:05;7.20;99.90
26230;DHT22;13960;50.860;4.352;2022-11-20T02:10:31;7.20;99.90
26230;DHT22;13960;50.860;4.352;2022-11-20T02:12:57;7.10;99.90
26230;DHT22;13960;50.860;4.352;2022-11-20T02:15:42;6.60;99.90
26230;DHT22;13960;50.860;4.352;2022-11-20T02:18:08;6.10;99.90
26230;DHT22;13960;50.860;4.352;2022-11-20T02:20:34;5.70;99.90
26230;DHT22;13960;50.860;4.352;2022-11-20T02:23:05;5.50;99.90
26230;DHT22;13960;50.860;4.352;2022-11-20T02:25:34;5.40;99.90
26230;DHT22;13960;50.860;4.352;2022-11-20T02:28:00;4.80;99.90
26230;DHT22;13960;50.860;4.352;2022-11-20T02:30:26;4.90;99.90
26230;DHT22;13960;50.860;4.352;2022-11-20T02:32:51;4.80;99.90
26230;DHT22;13960;50.860;4.352;2022-11-20T02:37:43;4.60;99.90
26230;DHT22;13960;50.860;4.352;2022-11-20T02:40:08;4.40;99.90
26230;DHT22;13960;50.860;4.352;2022-11-20T02:42:35;4.20;99.90
26230;DHT22;13960;50.860;4.352;2022-11-20T02:45:01;4.10;99.90
26230;DHT22;13960;50.860;4.352;2022-11-20T02:47:27;4.00;99.90
26230;DHT22;13960;50.860;4.352;2022-11-20T02:49:52;4.00;99.90
26230;DHT22;13960;50.860;4.352;2022-11-20T02:52:18;4.00;99.90
26230;DHT22;13960;50.860;4.352;2022-11-20T02:54:43;4.10;99.90
26230;DHT22;13960;50.860;4.352;2022-11-20T02:57:09;4.10;99.90
26230;DHT22;13960;50.860;4.352;2022-11-20T02:59:34;4.20;99.90
26230;DHT22;13960;50.860;4.352;2022-11-20T03:02:00;4.20;99.90
26230;DHT22;13960;50.860;4.352;2022-11-20T03:04:25;4.00;99.90
26230;DHT22;13960;50.860;4.352;2022-11-20T03:06:51;4.00;99.90
26230;DHT22;13960;50.860;4.352;2022-11-20T03:09:16;4.00;99.90
26230;DHT22;13960;50.860;4.352;2022-11-20T03:11:42;4.00;99.90
26230;DHT22;13960;50.860;4.352;2022-11-20T03:14:07;4.20;99.90
26230;DHT22;13960;50.860;4.352;2022-11-20T03:16:34;4.20;99.90
26230;DHT22;13960;50.860;4.352;2022-11-20T03:18:59;4.10;99.90
26230;DHT22;13960;50.860;4.352;2022-11-20T03:21:25;4.10;99.90
26230;DHT22;13960;50.860;4.352;2022-11-20T03:23:51;4.20;99.90
26230;DHT22;13960;50.860;4.352;2022-11-20T03:26:19;4.20;99.90
26230;DHT22;13960;50.860;4.352;2022-11-20T03:28:50;4.20;99.90
26230;DHT22;13960;50.860;4.352;2022-11-20T03:31:17;4.10;99.90
26230;DHT22;13960;50.860;4.352;2022-11-20T03:33:44;4.10;99.90
26230;DHT22;13960;50.860;4.352;2022-11-20T03:36:14;4.00;99.90
26230;DHT22;13960;50.860;4.352;2022-11-20T03:38:40;4.10;99.90
26230;DHT22;13960;50.860;4.352;2022-11-20T03:41:10;4.10;99.90
26230;DHT22;13960;50.860;4.352;2022-11-20T03:43:36;4.30;99.90
26230;DHT22;13960;50.860;4.352;2022-11-20T03:46:02;4.30;99.90
26230;DHT22;13960;50.860;4.352;2022-11-20T03:48:28;4.30;99.90
26230;DHT22;13960;50.860;4.352;2022-11-20T03:51:06;4.30;99.90
26230;DHT22;13960;50.860;4.352;2022-11-20T03:53:34;4.50;99.90
26230;DHT22;13960;50.860;4.352;2022-11-20T03:56:00;4.60;99.90
26230;DHT22;13960;50.860;4.352;2022-11-20T03:58:25;4.90;99.90
26230;DHT22;13960;50.860;4.352;2022-11-20T04:00:51;4.90;99.90
26230;DHT22;13960;50.860;4.352;2022-11-20T04:03:16;4.70;99.90
26230;DHT22;13960;50.860;4.352;2022-11-20T04:05:42;4.50;99.90
26230;DHT22;13960;50.860;4.352;2022-11-20T04:08:08;4.70;99.90
26230;DHT22;13960;50.860;4.352;2022-11-20T04:10:33;4.90;99.90
26230;DHT22;13960;50.860;4.352;2022-11-20T04:12:59;4.90;99.90
26230;DHT22;13960;50.860;4.352;2022-11-20T04:15:24;5.00;99.90
26230;DHT22;13960;50.860;4.352;2022-11-20T04:17:50;4.70;99.90
26230;DHT22;13960;50.860;4.352;2022-11-20T04:20:15;4.60;99.90
26230;DHT22;13960;50.860;4.352;2022-11-20T04:22:41;4.60;99.90
26230;DHT22;13960;50.860;4.352;2022-11-20T04:25:06;4.50;99.90
26230;DHT22;13960;50.860;4.352;2022-11-20T04:27:32;4.70;99.90
26230;DHT22;13960;50.860;4.352;2022-11-20T04:29:58;4.70;99.90
26230;DHT22;13960;50.860;4.352;2022-11-20T04:32:23;4.60;99.90
26230;DHT22;13960;50.860;4.352;2022-11-20T04:34:50;4.60;99.90
26230;DHT22;13960;50.860;4.352;2022-11-20T04:37:15;4.90;99.90
26230;DHT22;13960;50.860;4.352;2022-11-20T04:39:41;4.80;99.90
26230;DHT22;13960;50.860;4.352;2022-11-20T04:42:07;4.80;99.90
26230;DHT22;13960;50.860;4.352;2022-11-20T04:44:52;4.70;99.90
26230;DHT22;13960;50.860;4.352;2022-11-20T04:47:17;4.70;99.90
26230;DHT22;13960;50.860;4.352;2022-11-20T04:49:43;5.00;99.90
26230;DHT22;13960;50.860;4.352;2022-11-20T04:52:08;5.20;99.90
26230;DHT22;13960;50.860;4.352;2022-11-20T04:54:36;5.30;99.90
26230;DHT22;13960;50.860;4.352;2022-11-20T04:57:02;5.50;99.90
26230;DHT22;13960;50.860;4.352;2022-11-20T04:59:28;5.60;99.90
26230;DHT22;13960;50.860;4.352;2022-11-20T05:01:54;5.70;99.90
26230;DHT22;13960;50.860;4.352;2022-11-20T05:04:19;5.90;99.90
26230;DHT22;13960;50.860;4.352;2022-11-20T05:06:44;6.10;99.90
26230;DHT22;13960;50.860;4.352;2022-11-20T05:09:11;5.70;99.90
26230;DHT22;13960;50.860;4.352;2022-11-20T05:11:37;5.30;99.90
26230;DHT22;13960;50.860;4.352;2022-11-20T05:14:03;5.10;99.90
26230;DHT22;13960;50.860;4.352;2022-11-20T05:16:28;5.10;99.90
26230;DHT22;13960;50.860;4.352;2022-11-20T05:18:54;5.00;99.90
26230;DHT22;13960;50.860;4.352;2022-11-20T05:21:21;5.30;99.90
26230;DHT22;13960;50.860;4.352;2022-11-20T05:23:47;5.50;99.90
26230;DHT22;13960;50.860;4.352;2022-11-20T05:26:16;5.40;99.90
26230;DHT22;13960;50.860;4.352;2022-11-20T05:28:41;5.10;99.90
26230;DHT22;13960;50.860;4.352;2022-11-20T05:31:08;5.20;99.90
26230;DHT22;13960;50.860;4.352;2022-11-20T05:33:34;5.20;99.90
26230;DHT22;13960;50.860;4.352;2022-11-20T05:36:00;5.40;99.90
26230;DHT22;13960;50.860;4.352;2022-11-20T05:38:25;5.30;99.90
26230;DHT22;13960;50.860;4.352;2022-11-20T05:40:51;5.60;99.90
26230;DHT22;13960;50.860;4.352;2022-11-20T05:43:17;5.50;99.90
26230;DHT22;13960;50.860;4.352;2022-11-20T05:45:42;5.30;99.90
26230;DHT22;13960;50.860;4.352;2022-11-20T05:48:08;5.50;99.90
26230;DHT22;13960;50.860;4.352;2022-11-20T05:50:34;5.60;99.90
26230;DHT22;13960;50.860;4.352;2022-11-20T05:53:00;5.60;99.90
26230;DHT22;13960;50.860;4.352;2022-11-20T05:55:26;5.90;99.90
26230;DHT22;13960;50.860;4.352;2022-11-20T05:57:53;6.10;99.90
26230;DHT22;13960;50.860;4.352;2022-11-20T06:00:19;6.10;99.90
26230;DHT22;13960;50.860;4.352;2022-11-20T06:02:45;6.00;99.90
26230;DHT22;13960;50.860;4.352;2022-11-20T06:05:11;6.10;99.90
26230;DHT22;13960;50.860;4.352;2022-11-20T06:07:37;5.90;99.90
26230;DHT22;13960;50.860;4.352;2022-11-20T06:10:03;5.90;99.90
26230;DHT22;13960;50.860;4.352;2022-11-20T06:12:30;5.80;99.90
26230;DHT22;13960;50.860;4.352;2022-11-20T06:14:56;5.80;99.90
26230;DHT22;13960;50.860;4.352;2022-11-20T06:17:21;6.00;99.90
26230;DHT22;13960;50.860;4.352;2022-11-20T06:19:47;5.90;99.90
26230;DHT22;13960;50.860;4.352;2022-11-20T06:22:12;5.70;99.90
26230;DHT22;13960;50.860;4.352;2022-11-20T06:24:38;5.90;99.90
26230;DHT22;13960;50.860;4.352;2022-11-20T06:27:03;6.00;99.90
26230;DHT22;13960;50.860;4.352;2022-11-20T06:29:29;5.90;99.90
26230;DHT22;13960;50.860;4.352;2022-11-20T06:31:54;5.90;99.90
26230;DHT22;13960;50.860;4.352;2022-11-20T06:34:20;5.70;99.90
26230;DHT22;13960;50.860;4.352;2022-11-20T06:36:45;5.70;99.90
26230;DHT22;13960;50.860;4.352;2022-11-20T06:39:11;5.80;99.90
26230;DHT22;13960;50.860;4.352;2022-11-20T06:41:37;5.90;99.90
26230;DHT22;13960;50.860;4.352;2022-11-20T06:44:03;6.00;99.90
26230;DHT22;13960;50.860;4.352;2022-11-20T06:46:29;6.10;99.90
26230;DHT22;13960;50.860;4.352;2022-11-20T06:48:54;6.10;99.90
26230;DHT22;13960;50.860;4.352;2022-11-20T06:51:20;6.10;99.90
26230;DHT22;13960;50.860;4.352;2022-11-20T06:53:46;6.00;99.90
26230;DHT22;13960;50.860;4.352;2022-11-20T06:56:12;6.20;99.90
26230;DHT22;13960;50.860;4.352;2022-11-20T06:58:38;6.30;99.90
26230;DHT22;13960;50.860;4.352;2022-11-20T07:01:08;6.40;99.90
26230;DHT22;13960;50.860;4.352;2022-11-20T07:03:37;6.40;99.90
26230;DHT22;13960;50.860;4.352;2022-11-20T07:06:03;6.60;99.90
26230;DHT22;13960;50.860;4.352;2022-11-20T07:08:33;6.40;99.90
26230;DHT22;13960;50.860;4.352;2022-11-20T07:10:59;6.30;99.90
26230;DHT22;13960;50.860;4.352;2022-11-20T07:13:25;6.30;99.90
26230;DHT22;13960;50.860;4.352;2022-11-20T07:15:51;6.30;99.90
26230;DHT22;13960;50.860;4.352;2022-11-20T07:18:16;6.60;99.90
26230;DHT22;13960;50.860;4.352;2022-11-20T07:20:42;6.50;99.90
26230;DHT22;13960;50.860;4.352;2022-11-20T07:23:07;6.60;99.90
26230;DHT22;13960;50.860;4.352;2022-11-20T07:25:33;6.50;99.90
26230;DHT22;13960;50.860;4.352;2022-11-20T07:27:59;6.50;99.90
26230;DHT22;13960;50.860;4.352;2022-11-20T07:30:25;6.50;99.90
26230;DHT22;13960;50.860;4.352;2022-11-20T07:32:51;6.80;99.90
26230;DHT22;13960;50.860;4.352;2022-11-20T07:35:20;6.80;99.90
26230;DHT22;13960;50.860;4.352;2022-11-20T07:37:46;6.60;99.90
26230;DHT22;13960;50.860;4.352;2022-11-20T07:40:12;6.40;99.90
26230;DHT22;13960;50.860;4.352;2022-11-20T07:42:38;6.50;99.90
26230;DHT22;13960;50.860;4.352;2022-11-20T07:45:04;6.70;99.90
26230;DHT22;13960;50.860;4.352;2022-11-20T07:47:40;6.80;99.90
26230;DHT22;13960;50.860;4.352;2022-11-20T07:50:06;6.80;99.90
26230;DHT22;13960;50.860;4.352;2022-11-20T07:52:32;6.80;99.90
26230;DHT22;13960;50.860;4.352;2022-11-20T07:54:59;7.00;99.90
26230;DHT22;13960;50.860;4.352;2022-11-20T07:57:24;7.00;99.90
26230;DHT22;13960;50.860;4.352;2022-11-20T07:59:50;6.90;99.90
26230;DHT22;13960;50.860;4.352;2022-11-20T08:02:16;7.00;99.90
26230;DHT22;13960;50.860;4.352;2022-11-20T08:04:41;7.00;99.90
26230;DHT22;13960;50.860;4.352;2022-11-20T08:07:07;7.00;99.90
26230;DHT22;13960;50.860;4.352;2022-11-20T08:09:32;7.00;99.90
26230;DHT22;13960;50.860;4.352;2022-11-20T08:11:58;6.90;99.90
26230;DHT22;13960;50.860;4.352;2022-11-20T08:14:42;6.90;99.90
26230;DHT22;13960;50.860;4.352;2022-11-20T08:17:08;7.00;99.90
26230;DHT22;13960;50.860;4.352;2022-11-20T08:19:34;7.10;99.90
26230;DHT22;13960;50.860;4.352;2022-11-20T08:21:59;7.10;99.90
26230;DHT22;13960;50.860;4.352;2022-11-20T08:24:25;7.00;99.90
26230;DHT22;13960;50.860;4.352;2022-11-20T08:26:51;7.10;99.90
26230;DHT22;13960;50.860;4.352;2022-11-20T08:29:17;7.10;99.90
26230;DHT22;13960;50.860;4.352;2022-11-20T08:31:44;7.10;99.90
26230;DHT22;13960;50.860;4.352;2022-11-20T08:34:10;7.00;99.90
26230;DHT22;13960;50.860;4.352;2022-11-20T08:36:38;6.80;99.90
26230;DHT22;13960;50.860;4.352;2022-11-20T08:39:03;6.80;99.90
26230;DHT22;13960;50.860;4.352;2022-11-20T08:41:31;6.90;99.90
26230;DHT22;13960;50.860;4.352;2022-11-20T08:44:05;7.00;99.90
26230;DHT22;13960;50.860;4.352;2022-11-20T08:46:35;7.00;99.90
26230;DHT22;13960;50.860;4.352;2022-11-20T08:49:02;7.00;99.90
26230;DHT22;13960;50.860;4.352;2022-11-20T08:51:28;7.10;99.90
26230;DHT22;13960;50.860;4.352;2022-11-20T08:53:54;7.10;99.90
26230;DHT22;13960;50.860;4.352;2022-11-20T08:56:20;7.10;99.90
26230;DHT22;13960;50.860;4.352;2022-11-20T08:58:46;7.20;99.90
26230;DHT22;13960;50.860;4.352;2022-11-20T09:01:14;7.30;99.90
26230;DHT22;13960;50.860;4.352;2022-11-20T09:03:39;7.40;99.90
26230;DHT22;13960;50.860;4.352;2022-11-20T09:06:08;7.50;99.90
26230;DHT22;13960;50.860;4.352;2022-11-20T09:08:34;7.50;99.90
26230;DHT22;13960;50.860;4.352;2022-11-20T09:11:01;7.30;99.90
26230;DHT22;13960;50.860;4.352;2022-11-20T09:13:27;7.30;99.90
26230;DHT22;13960;50.860;4.352;2022-11-20T09:15:53;7.40;99.90
26230;DHT22;13960;50.860;4.352;2022-11-20T09:18:20;7.40;99.90
26230;DHT22;13960;50.860;4.352;2022-11-20T09:20:46;7.40;99.90
26230;DHT22;13960;50.860;4.352;2022-11-20T09:23:13;7.30;99.90
26230;DHT22;13960;50.860;4.352;2022-11-20T09:25:38;7.40;99.90
26230;DHT22;13960;50.860;4.352;2022-11-20T09:28:04;7.60;99.90
26230;DHT22;13960;50.860;4.352;2022-11-20T09:30:30;7.80;99.90
26230;DHT22;13960;50.860;4.352;2022-11-20T09:32:56;8.00;99.90
26230;DHT22;13960;50.860;4.352;2022-11-20T09:35:22;7.90;99.90
26230;DHT22;13960;50.860;4.352;2022-11-20T09:37:47;7.80;99.90
26230;DHT22;13960;50.860;4.352;2022-11-20T09:40:19;7.70;99.90
26230;DHT22;13960;50.860;4.352;2022-11-20T09:42:47;7.80;99.90
26230;DHT22;13960;50.860;4.352;2022-11-20T09:45:23;8.00;99.90
26230;DHT22;13960;50.860;4.352;2022-11-20T09:50:42;8.00;99.90
26230;DHT22;13960;50.860;4.352;2022-11-20T09:53:39;8.00;99.90
26230;DHT22;13960;50.860;4.352;2022-11-20T09:55:59;8.10;99.90
26230;DHT22;13960;50.860;4.352;2022-11-20T10:01:03;8.10;99.90
26230;DHT22;13960;50.860;4.352;2022-11-20T10:03:36;8.20;99.90
26230;DHT22;13960;50.860;4.352;2022-11-20T10:06:03;8.30;99.90
26230;DHT22;13960;50.860;4.352;2022-11-20T10:08:55;8.40;99.90
26230;DHT22;13960;50.860;4.352;2022-11-20T10:21:30;8.70;99.90
26230;DHT22;13960;50.860;4.352;2022-11-20T10:24:08;8.70;99.90
26230;DHT22;13960;50.860;4.352;2022-11-20T10:26:43;8.70;99.90
26230;DHT22;13960;50.860;4.352;2022-11-20T10:29:15;8.70;99.90
26230;DHT22;13960;50.860;4.352;2022-11-20T10:31:42;8.90;99.90
26230;DHT22;13960;50.860;4.352;2022-11-20T10:36:49;8.90;99.90
26230;DHT22;13960;50.860;4.352;2022-11-20T10:40:03;8.90;99.90
26230;DHT22;13960;50.860;4.352;2022-11-20T10:42:02;8.90;99.90
26230;DHT22;13960;50.860;4.352;2022-11-20T10:44:29;9.00;99.90
26230;DHT22;13960;50.860;4.352;2022-11-20T10:47:14;8.90;99.90
26230;DHT22;13960;50.860;4.352;2022-11-20T10:49:41;9.00;99.90
26230;DHT22;13960;50.860;4.352;2022-11-20T10:54:54;8.90;99.90
26230;DHT22;13960;50.860;4.352;2022-11-20T10:57:31;9.00;99.90
26230;DHT22;13960;50.860;4.352;2022-11-20T11:02:39;9.00;99.90
26230;DHT22;13960;50.860;4.352;2022-11-20T11:05:09;9.00;99.90
26230;DHT22;13960;50.860;4.352;2022-11-20T11:07:36;9.00;99.90
26230;DHT22;13960;50.860;4.352;2022-11-20T11:10:12;9.00;99.90
26230;DHT22;13960;50.860;4.352;2022-11-20T11:12:42;9.00;99.90
26230;DHT22;13960;50.860;4.352;2022-11-20T11:15:13;9.10;99.90
26230;DHT22;13960;50.860;4.352;2022-11-20T11:17:45;9.20;99.90
26230;DHT22;13960;50.860;4.352;2022-11-20T11:20:19;9.10;99.90
26230;DHT22;13960;50.860;4.352;2022-11-20T11:22:55;9.00;99.90
26230;DHT22;13960;50.860;4.352;2022-11-20T11:27:50;9.10;99.90
26230;DHT22;13960;50.860;4.352;2022-11-20T11:30:16;9.10;99.90
26230;DHT22;13960;50.860;4.352;2022-11-20T11:32:42;9.10;99.90
26230;DHT22;13960;50.860;4.352;2022-11-20T11:37:46;9.30;99.90
26230;DHT22;13960;50.860;4.352;2022-11-20T11:40:12;9.30;99.90
26230;DHT22;13960;50.860;4.352;2022-11-20T11:42:42;9.10;99.90
26230;DHT22;13960;50.860;4.352;2022-11-20T11:45:11;9.10;99.90
26230;DHT22;13960;50.860;4.352;2022-11-20T11:55:02;9.10;99.90
26230;DHT22;13960;50.860;4.352;2022-11-20T12:00:14;9.00;99.90
26230;DHT22;13960;50.860;4.352;2022-11-20T12:05:18;8.80;99.90
26230;DHT22;13960;50.860;4.352;2022-11-20T12:10:14;8.70;99.90
26230;DHT22;13960;50.860;4.352;2022-11-20T12:12:41;8.70;99.90
26230;DHT22;13960;50.860;4.352;2022-11-20T12:15:13;8.70;99.90
26230;DHT22;13960;50.860;4.352;2022-11-20T12:17:41;8.60;99.90
26230;DHT22;13960;50.860;4.352;2022-11-20T12:20:11;8.50;99.90
26230;DHT22;13960;50.860;4.352;2022-11-20T12:25:22;8.50;99.90
26230;DHT22;13960;50.860;4.352;2022-11-20T12:30:23;8.50;99.90
26230;DHT22;13960;50.860;4.352;2022-11-20T12:33:05;8.40;99.90
26230;DHT22;13960;50.860;4.352;2022-11-20T12:38:26;8.40;99.90
26230;DHT22;13960;50.860;4.352;2022-11-20T12:43:27;8.40;99.90
26230;DHT22;13960;50.860;4.352;2022-11-20T12:46:20;8.60;99.90
26230;DHT22;13960;50.860;4.352;2022-11-20T13:06:46;8.60;99.90
26230;DHT22;13960;50.860;4.352;2022-11-20T13:09:13;8.70;99.90
26230;DHT22;13960;50.860;4.352;2022-11-20T13:16:45;8.60;99.90
26230;DHT22;13960;50.860;4.352;2022-11-20T13:19:15;8.60;99.90
26230;DHT22;13960;50.860;4.352;2022-11-20T13:21:48;8.60;99.90
26230;DHT22;13960;50.860;4.352;2022-11-20T13:26:45;8.60;99.90
26230;DHT22;13960;50.860;4.352;2022-11-20T13:29:12;8.50;99.90
26230;DHT22;13960;50.860;4.352;2022-11-20T13:31:43;8.40;99.90
26230;DHT22;13960;50.860;4.352;2022-11-20T13:34:10;8.50;99.90
26230;DHT22;13960;50.860;4.352;2022-11-20T13:36:37;8.50;99.90
26230;DHT22;13960;50.860;4.352;2022-11-20T13:39:23;8.40;99.90
26230;DHT22;13960;50.860;4.352;2022-11-20T13:41:53;8.40;99.90
26230;DHT22;13960;50.860;4.352;2022-11-20T13:44:38;8.40;99.90
26230;DHT22;13960;50.860;4.352;2022-11-20T13:47:15;8.50;99.90
26230;DHT22;13960;50.860;4.352;2022-11-20T13:49:42;8.40;99.90
26230;DHT22;13960;50.860;4.352;2022-11-20T14:00:03;8.50;99.90
26230;DHT22;13960;50.860;4.352;2022-11-20T14:02:30;8.40;99.90
26230;DHT22;13960;50.860;4.352;2022-11-20T14:04:59;8.40;99.90
26230;DHT22;13960;50.860;4.352;2022-11-20T14:07:26;8.40;99.90
26230;DHT22;13960;50.860;4.352;2022-11-20T14:09:53;8.40;99.90
26230;DHT22;13960;50.860;4.352;2022-11-20T14:12:20;8.40;99.90
26230;DHT22;13960;50.860;4.352;2022-11-20T14:14:52;8.50;99.90
26230;DHT22;13960;50.860;4.352;2022-11-20T14:17:20;8.40;99.90
26230;DHT22;13960;50.860;4.352;2022-11-20T14:19:46;8.40;99.90
26230;DHT22;13960;50.860;4.352;2022-11-20T14:22:20;8.40;99.90
26230;DHT22;13960;50.860;4.352;2022-11-20T14:24:46;8.40;99.90
26230;DHT22;13960;50.860;4.352;2022-11-20T14:27:13;8.50;99.90
26230;DHT22;13960;50.860;4.352;2022-11-20T14:29:39;8.40;99.90
26230;DHT22;13960;50.860;4.352;2022-11-20T14:32:08;8.50;99.90
26230;DHT22;13960;50.860;4.352;2022-11-20T14:34:36;8.40;99.90
26230;DHT22;13960;50.860;4.352;2022-11-20T14:37:03;8.50;99.90
26230;DHT22;13960;50.860;4.352;2022-11-20T14:39:33;8.40;99.90
26230;DHT22;13960;50.860;4.352;2022-11-20T14:41:59;8.40;99.90
26230;DHT22;13960;50.860;4.352;2022-11-20T14:44:31;8.50;99.90
26230;DHT22;13960;50.860;4.352;2022-11-20T14:46:58;8.40;99.90
26230;DHT22;13960;50.860;4.352;2022-11-20T14:49:25;8.40;99.90
26230;DHT22;13960;50.860;4.352;2022-11-20T14:54:56;8.40;99.90
26230;DHT22;13960;50.860;4.352;2022-11-20T14:59:50;8.40;99.90
26230;DHT22;13960;50.860;4.352;2022-11-20T15:02:16;8.40;99.90
26230;DHT22;13960;50.860;4.352;2022-11-20T15:04:48;8.40;99.90
26230;DHT22;13960;50.860;4.352;2022-11-20T15:07:24;8.50;99.90
26230;DHT22;13960;50.860;4.352;2022-11-20T15:10:51;8.50;99.90
26230;DHT22;13960;50.860;4.352;2022-11-20T15:12:53;8.50;99.90
26230;DHT22;13960;50.860;4.352;2022-11-20T15:18:03;8.60;99.90
26230;DHT22;13960;50.860;4.352;2022-11-20T15:20:30;8.60;99.90
26230;DHT22;13960;50.860;4.352;2022-11-20T15:22:56;8.60;99.90
26230;DHT22;13960;50.860;4.352;2022-11-20T15:25:21;8.60;99.90
26230;DHT22;13960;50.860;4.352;2022-11-20T15:27:52;8.70;99.90
26230;DHT22;13960;50.860;4.352;2022-11-20T15:30:19;8.80;99.90
26230;DHT22;13960;50.860;4.352;2022-11-20T15:32:45;8.80;99.90
26230;DHT22;13960;50.860;4.352;2022-11-20T15:35:11;8.80;99.90
26230;DHT22;13960;50.860;4.352;2022-11-20T15:37:37;8.80;99.90
26230;DHT22;13960;50.860;4.352;2022-11-20T15:40:03;8.80;99.90
26230;DHT22;13960;50.860;4.352;2022-11-20T15:42:29;8.80;99.90
26230;DHT22;13960;50.860;4.352;2022-11-20T15:44:55;8.80;99.90
26230;DHT22;13960;50.860;4.352;2022-11-20T15:47:20;8.90;99.90
26230;DHT22;13960;50.860;4.352;2022-11-20T15:49:49;8.90;99.90
26230;DHT22;13960;50.860;4.352;2022-11-20T15:52:14;8.90;99.90
26230;DHT22;13960;50.860;4.352;2022-11-20T15:54:40;8.90;99.90
26230;DHT22;13960;50.860;4.352;2022-11-20T15:57:06;9.00;99.90
26230;DHT22;13960;50.860;4.352;2022-11-20T15:59:31;9.00;99.90
26230;DHT22;13960;50.860;4.352;2022-11-20T16:01:57;8.90;99.90
26230;DHT22;13960;50.860;4.352;2022-11-20T16:04:22;9.00;99.90
26230;DHT22;13960;50.860;4.352;2022-11-20T16:06:48;9.00;99.90
26230;DHT22;13960;50.860;4.352;2022-11-20T16:09:13;9.10;99.90
26230;DHT22;13960;50.860;4.352;2022-11-20T16:11:39;9.10;99.90
26230;DHT22;13960;50.860;4.352;2022-11-20T16:14:05;9.10;99.90
26230;DHT22;13960;50.860;4.352;2022-11-20T16:16:49;9.20;99.90
26230;DHT22;13960;50.860;4.352;2022-11-20T16:19:15;9.10;99.90
26230;DHT22;13960;50.860;4.352;2022-11-20T16:21:41;9.20;99.90
26230;DHT22;13960;50.860;4.352;2022-11-20T16:24:07;9.10;99.90
26230;DHT22;13960;50.860;4.352;2022-11-20T16:26:33;9.10;99.90
26230;DHT22;13960;50.860;4.352;2022-11-20T16:28:59;9.10;99.90
26230;DHT22;13960;50.860;4.352;2022-11-20T16:31:25;9.30;99.90
26230;DHT22;13960;50.860;4.352;2022-11-20T16:33:55;9.20;99.90
26230;DHT22;13960;50.860;4.352;2022-11-20T16:36:22;9.20;99.90
26230;DHT22;13960;50.860;4.352;2022-11-20T16:38:56;9.20;99.90
26230;DHT22;13960;50.860;4.352;2022-11-20T16:41:22;9.20;99.90
26230;DHT22;13960;50.860;4.352;2022-11-20T16:43:48;9.30;99.90
26230;DHT22;13960;50.860;4.352;2022-11-20T16:46:15;9.30;99.90
26230;DHT22;13960;50.860;4.352;2022-11-20T16:48:41;9.30;99.90
26230;DHT22;13960;50.860;4.352;2022-11-20T16:51:10;9.20;99.90
26230;DHT22;13960;50.860;4.352;2022-11-20T16:53:36;9.20;99.90
26230;DHT22;13960;50.860;4.352;2022-11-20T16:56:09;9.20;99.90
26230;DHT22;13960;50.860;4.352;2022-11-20T16:58:35;9.20;99.90
26230;DHT22;13960;50.860;4.352;2022-11-20T17:01:06;9.20;99.90
26230;DHT22;13960;50.860;4.352;2022-11-20T17:03:38;9.20;99.90
26230;DHT22;13960;50.860;4.352;2022-11-20T17:06:16;9.10;99.90
26230;DHT22;13960;50.860;4.352;2022-11-20T17:08:42;9.10;99.90
26230;DHT22;13960;50.860;4.352;2022-11-20T17:11:08;9.00;99.90
26230;DHT22;13960;50.860;4.352;2022-11-20T17:13:35;9.10;99.90
26230;DHT22;13960;50.860;4.352;2022-11-20T17:16:04;9.10;99.90
26230;DHT22;13960;50.860;4.352;2022-11-20T17:18:30;9.10;99.90
26230;DHT22;13960;50.860;4.352;2022-11-20T17:20:55;9.10;99.90
26230;DHT22;13960;50.860;4.352;2022-11-20T17:23:21;9.00;99.90
26230;DHT22;13960;50.860;4.352;2022-11-20T17:25:46;9.00;99.90
26230;DHT22;13960;50.860;4.352;2022-11-20T17:28:12;9.00;99.90